Time;durP1;ratioP1;P1;durP2;ratioP2;P2;SDS_P1;SDS_P2;PMS_P1;PMS_P2;Temp;Humidity;BMP_temperature;BMP_pressure;BME280_temperature;BME280_humidity;BME280_pressure;Samples;Min_cycle;Max_cycle;Signal;HPM_P1;HPM_P2
2023/09/19 00:00:49;;;;;;;10.40;1.38;;;15.80;99.90;;;;;;5011017;28;20022;-80
2023/09/19 00:03:16;;;;;;;0.73;0.20;;;15.60;99.90;;;;;;5010018;28;20022;-81
2023/09/19 00:05:44;;;;;;;7.00;1.65;;;15.60;99.90;;;;;;5011289;28;20075;-80
2023/09/19 00:08:10;;;;;;;0.10;0.10;;;15.50;99.90;;;;;;5011080;28;20026;-81
2023/09/19 00:10:36;;;;;;;0.38;0.38;;;15.50;99.90;;;;;;5011072;28;20432;-80
2023/09/19 00:13:07;;;;;;;7.40;0.85;;;15.70;99.90;;;;;;5009756;28;20067;-81
2023/09/19 00:15:50;;;;;;;2.15;0.80;;;15.50;99.90;;;;;;5011272;28;20478;-81
2023/09/19 00:18:21;;;;;;;5.82;0.20;;;15.40;99.90;;;;;;5011210;28;20022;-81
2023/09/19 00:20:48;;;;;;;0.52;0.20;;;15.50;99.90;;;;;;5009842;28;20025;-81
2023/09/19 00:23:14;;;;;;;0.20;0.20;;;15.40;99.90;;;;;;4993538;28;20075;-80
2023/09/19 00:25:42;;;;;;;0.32;0.32;;;15.30;99.90;;;;;;5010856;28;20402;-80
2023/09/19 00:28:08;;;;;;;17.45;1.65;;;15.30;99.90;;;;;;5010812;28;20014;-80
2023/09/19 00:30:34;;;;;;;0.00;0.00;;;15.30;99.90;;;;;;5009496;28;20038;-81
2023/09/19 00:33:02;;;;;;;7.57;1.45;;;15.40;99.90;;;;;;5009097;28;20057;-80
2023/09/19 00:35:27;;;;;;;0.20;0.20;;;15.50;99.90;;;;;;5010901;28;20033;-80
2023/09/19 00:37:53;;;;;;;4.18;0.73;;;15.40;99.90;;;;;;5009436;28;20034;-81
2023/09/19 00:40:21;;;;;;;6.97;1.23;;;15.50;99.90;;;;;;5010520;28;20029;-80
2023/09/19 00:42:48;;;;;;;0.00;0.00;;;15.30;99.90;;;;;;5009702;28;20041;-81
2023/09/19 00:45:16;;;;;;;0.28;0.28;;;15.40;99.90;;;;;;5009130;28;20037;-80
2023/09/19 00:47:48;;;;;;;0.10;0.10;;;15.40;99.90;;;;;;5010765;28;20152;-81
2023/09/19 00:50:17;;;;;;;0.00;0.00;;;15.50;99.90;;;;;;5010566;28;20044;-81
2023/09/19 00:52:44;;;;;;;1.40;1.25;;;15.40;99.90;;;;;;5010804;28;20030;-81
2023/09/19 00:55:11;;;;;;;0.25;0.25;;;15.40;99.90;;;;;;5010500;28;20026;-80
2023/09/19 00:57:38;;;;;;;0.08;0.08;;;15.50;99.90;;;;;;5009490;28;20489;-81
2023/09/19 01:00:08;;;;;;;0.03;0.03;;;15.50;99.90;;;;;;5008619;28;20026;-81
2023/09/19 01:02:37;;;;;;;2.00;1.05;;;15.50;99.90;;;;;;5009705;28;20061;-80
2023/09/19 01:05:06;;;;;;;0.10;0.10;;;15.20;99.90;;;;;;5005884;28;20034;-80
2023/09/19 01:07:34;;;;;;;2.28;1.27;;;15.20;99.90;;;;;;5020012;28;20022;-80
2023/09/19 01:10:05;;;;;;;1.38;0.95;;;15.10;99.90;;;;;;5008859;28;20062;-80
2023/09/19 01:13:08;;;;;;;0.88;0.88;;;15.10;99.90;;;;;;5009157;28;20038;-82
2023/09/19 01:15:41;;;;;;;0.00;0.00;;;15.20;99.90;;;;;;4999419;28;20032;-81
2023/09/19 01:18:06;;;;;;;2.03;0.85;;;15.20;99.90;;;;;;5008340;28;20032;-81
2023/09/19 01:20:44;;;;;;;4.22;0.40;;;15.10;99.90;;;;;;5008839;28;20029;-80
2023/09/19 01:23:28;;;;;;;0.65;0.65;;;15.20;99.90;;;;;;5025518;28;20026;-81
2023/09/19 01:26:18;;;;;;;0.40;0.30;;;15.10;99.90;;;;;;5010078;28;20030;-81
2023/09/19 01:29:29;;;;;;;0.15;0.15;;;15.20;99.90;;;;;;5008667;28;20030;-81
2023/09/19 01:32:01;;;;;;;0.13;0.13;;;15.30;99.90;;;;;;5009764;28;20471;-81
2023/09/19 01:34:27;;;;;;;0.03;0.03;;;15.30;99.90;;;;;;5010016;28;20030;-80
2023/09/19 01:36:53;;;;;;;0.10;0.10;;;15.30;99.90;;;;;;5008721;28;20382;-80
2023/09/19 01:39:19;;;;;;;0.10;0.10;;;15.10;99.90;;;;;;5008801;28;20029;-80
2023/09/19 01:42:14;;;;;;;0.10;0.10;;;15.10;99.90;;;;;;5008472;28;20049;-81
2023/09/19 01:45:02;;;;;;;0.40;0.30;;;14.90;99.90;;;;;;5012449;28;20485;-81
2023/09/19 01:48:06;;;;;;;6.95;1.80;;;15.00;99.90;;;;;;5012227;28;20033;-80
2023/09/19 01:50:44;;;;;;;0.10;0.10;;;14.80;99.90;;;;;;5003192;28;20120;-80
2023/09/19 01:53:23;;;;;;;0.00;0.00;;;14.90;99.90;;;;;;5028671;28;20029;-80
2023/09/19 01:55:51;;;;;;;2.67;2.40;;;14.90;99.90;;;;;;5013353;28;20470;-80
2023/09/19 01:58:28;;;;;;;0.45;0.20;;;14.80;99.90;;;;;;5011684;28;20022;-80
2023/09/19 02:00:56;;;;;;;0.30;0.30;;;14.80;99.90;;;;;;5011786;28;20087;-80
2023/09/19 02:03:23;;;;;;;0.95;0.52;;;14.80;99.90;;;;;;5013338;28;20053;-80
2023/09/19 02:05:53;;;;;;;0.55;0.55;;;14.70;99.90;;;;;;5011787;28;20493;-80
2023/09/19 02:08:23;;;;;;;3.47;0.90;;;14.70;99.90;;;;;;5013101;28;20033;-80
2023/09/19 02:10:49;;;;;;;0.10;0.10;;;14.70;99.90;;;;;;5011601;28;20045;-81
2023/09/19 02:13:27;;;;;;;2.47;1.00;;;14.70;99.90;;;;;;5011401;28;20482;-80
2023/09/19 02:15:54;;;;;;;0.40;0.40;;;14.70;99.90;;;;;;5012917;28;20094;-82
2023/09/19 02:18:19;;;;;;;1.75;0.47;;;14.70;99.90;;;;;;5011387;28;20029;-81
2023/09/19 02:20:45;;;;;;;6.85;1.20;;;14.80;99.90;;;;;;5011702;28;20026;-81
2023/09/19 02:23:12;;;;;;;1.02;0.63;;;14.90;99.90;;;;;;5011181;28;20516;-81
2023/09/19 02:25:40;;;;;;;10.88;0.80;;;15.00;99.90;;;;;;5011457;28;20026;-80
2023/09/19 02:28:09;;;;;;;0.82;0.77;;;14.90;99.90;;;;;;5011134;28;20018;-80
2023/09/19 02:30:36;;;;;;;3.20;0.68;;;14.80;99.90;;;;;;5027907;28;20030;-81
2023/09/19 02:33:03;;;;;;;1.02;0.22;;;14.80;99.90;;;;;;5011066;28;20029;-80
2023/09/19 02:35:32;;;;;;;0.80;0.30;;;14.90;99.90;;;;;;5012712;28;20028;-81
2023/09/19 02:37:58;;;;;;;1.08;0.75;;;14.90;99.90;;;;;;5008626;28;20029;-80
2023/09/19 02:40:25;;;;;;;0.95;0.95;;;14.80;99.90;;;;;;5012639;28;20442;-80
2023/09/19 02:42:56;;;;;;;2.60;0.70;;;14.80;99.90;;;;;;5011042;28;20029;-81
2023/09/19 02:45:23;;;;;;;4.93;1.45;;;14.80;99.90;;;;;;5027523;28;20057;-80
2023/09/19 02:47:49;;;;;;;5.85;1.02;;;14.80;99.90;;;;;;5011088;28;20091;-81
2023/09/19 02:50:16;;;;;;;11.40;1.23;;;14.90;99.90;;;;;;5011015;28;20482;-81
2023/09/19 02:52:48;;;;;;;8.25;2.17;;;15.00;99.90;;;;;;5027400;28;20026;-79
2023/09/19 02:55:18;;;;;;;6.18;1.50;;;14.90;99.90;;;;;;5012045;28;20421;-80
2023/09/19 02:57:54;;;;;;;1.85;0.57;;;14.90;99.90;;;;;;5027261;28;20044;-80
2023/09/19 03:00:22;;;;;;;1.80;1.02;;;14.90;99.90;;;;;;4991831;28;20037;-80
2023/09/19 03:02:56;;;;;;;15.10;1.27;;;15.10;99.90;;;;;;5005626;28;20395;-80
2023/09/19 03:05:23;;;;;;;1.58;0.88;;;15.10;99.90;;;;;;4983387;28;20034;-81
2023/09/19 03:07:50;;;;;;;0.22;0.22;;;15.10;99.90;;;;;;5010104;28;20392;-80
2023/09/19 03:10:17;;;;;;;3.97;0.47;;;15.00;99.90;;;;;;5011387;28;20497;-80
2023/09/19 03:12:43;;;;;;;0.32;0.30;;;15.00;99.90;;;;;;5010809;28;20033;-80
2023/09/19 03:15:09;;;;;;;3.78;0.65;;;15.20;99.90;;;;;;4994584;28;20150;-81
2023/09/19 03:17:36;;;;;;;5.82;0.85;;;15.10;99.90;;;;;;5010906;28;20050;-81
2023/09/19 03:20:04;;;;;;;0.40;0.40;;;15.30;99.90;;;;;;5010657;28;20022;-80
2023/09/19 03:22:31;;;;;;;1.58;1.48;;;15.20;99.90;;;;;;5010683;28;20415;-80
2023/09/19 03:24:56;;;;;;;7.05;0.93;;;15.20;99.90;;;;;;5002552;28;20542;-80
2023/09/19 03:27:22;;;;;;;2.55;1.67;;;15.20;99.90;;;;;;5010683;28;20030;-81
2023/09/19 03:29:48;;;;;;;6.50;0.80;;;15.20;99.90;;;;;;5010574;28;20116;-82
2023/09/19 03:32:15;;;;;;;2.17;1.17;;;15.20;99.90;;;;;;5010629;28;20108;-81
2023/09/19 03:34:43;;;;;;;6.97;2.10;;;15.20;99.90;;;;;;5010407;28;20477;-81
2023/09/19 03:37:09;;;;;;;31.00;1.52;;;15.30;99.90;;;;;;5010696;28;20025;-80
2023/09/19 03:39:36;;;;;;;3.22;0.52;;;15.30;99.90;;;;;;5010096;28;20044;-80
2023/09/19 03:42:06;;;;;;;10.95;5.95;;;15.30;99.90;;;;;;5010511;28;20560;-81
2023/09/19 03:44:33;;;;;;;0.52;0.15;;;15.30;99.90;;;;;;5010496;28;20034;-80
2023/09/19 03:46:59;;;;;;;8.77;1.25;;;15.20;99.90;;;;;;5010315;28;20137;-80
2023/09/19 03:49:25;;;;;;;8.02;1.77;;;15.10;99.90;;;;;;5010248;28;20026;-80
2023/09/19 03:51:51;;;;;;;0.57;0.20;;;15.20;99.90;;;;;;5010278;28;20493;-81
2023/09/19 03:54:19;;;;;;;1.65;0.95;;;15.20;99.90;;;;;;5009895;28;20022;-81
2023/09/19 03:56:45;;;;;;;1.40;0.60;;;15.10;99.90;;;;;;5010252;28;20033;-81
2023/09/19 03:59:12;;;;;;;0.28;0.28;;;15.20;99.90;;;;;;5011518;28;20420;-80
2023/09/19 04:01:38;;;;;;;3.58;0.30;;;15.10;99.90;;;;;;5010047;28;20052;-81
2023/09/19 04:04:08;;;;;;;4.07;0.47;;;15.00;99.90;;;;;;5009872;28;20025;-83
2023/09/19 04:06:35;;;;;;;0.75;0.75;;;15.00;99.90;;;;;;4990017;28;20029;-81
2023/09/19 04:09:03;;;;;;;7.63;1.30;;;14.90;99.90;;;;;;5009068;28;20026;-81
2023/09/19 04:11:31;;;;;;;0.10;0.10;;;14.90;99.90;;;;;;5009864;28;20030;-80
2023/09/19 04:13:57;;;;;;;3.03;0.75;;;14.90;99.90;;;;;;5009960;28;20034;-80
2023/09/19 04:16:23;;;;;;;3.85;0.82;;;14.80;99.90;;;;;;5009940;28;20431;-80
2023/09/19 04:18:48;;;;;;;5.20;0.82;;;14.80;99.90;;;;;;5010994;28;20105;-81
2023/09/19 04:21:14;;;;;;;2.08;0.77;;;14.80;99.90;;;;;;5009639;28;20044;-81
2023/09/19 04:23:40;;;;;;;0.17;0.15;;;14.80;99.90;;;;;;4993480;28;20044;-81
2023/09/19 04:26:06;;;;;;;0.08;0.08;;;14.90;99.90;;;;;;5010842;28;20075;-80
2023/09/19 04:28:34;;;;;;;5.05;0.90;;;14.80;99.90;;;;;;5011082;28;20022;-82
2023/09/19 04:31:00;;;;;;;0.90;0.43;;;14.80;99.90;;;;;;5010984;28;20371;-81
2023/09/19 04:33:29;;;;;;;0.20;0.20;;;14.70;99.90;;;;;;5009427;28;20022;-80
2023/09/19 04:35:55;;;;;;;0.45;0.45;;;14.70;99.90;;;;;;5010948;28;20025;-81
2023/09/19 04:38:22;;;;;;;0.38;0.38;;;14.70;99.90;;;;;;5010340;28;20482;-80
2023/09/19 04:40:48;;;;;;;0.10;0.10;;;14.80;99.90;;;;;;5009475;28;20029;-81
2023/09/19 04:43:15;;;;;;;2.28;0.75;;;14.90;99.90;;;;;;5010763;28;20067;-81
2023/09/19 04:45:41;;;;;;;5.93;3.42;;;14.80;99.90;;;;;;5010791;28;20038;-81
2023/09/19 04:48:08;;;;;;;3.45;1.02;;;14.70;99.90;;;;;;5010674;28;20129;-80
2023/09/19 04:50:34;;;;;;;2.72;0.57;;;14.70;99.90;;;;;;5009434;28;20065;-82
2023/09/19 04:53:01;;;;;;;4.38;0.95;;;14.70;99.90;;;;;;5010529;28;20470;-80
2023/09/19 04:55:27;;;;;;;4.03;1.45;;;14.80;99.90;;;;;;5010427;28;20025;-81
2023/09/19 04:57:53;;;;;;;0.65;0.65;;;14.80;99.90;;;;;;5010558;28;20050;-81
2023/09/19 05:00:24;;;;;;;0.00;0.00;;;14.70;99.90;;;;;;5025390;28;20037;-81
2023/09/19 05:02:56;;;;;;;5.15;0.90;;;14.70;99.90;;;;;;5010378;28;20030;-81
2023/09/19 05:05:22;;;;;;;5.43;0.38;;;14.80;99.90;;;;;;5010031;28;20117;-80
2023/09/19 05:07:48;;;;;;;3.72;0.65;;;14.80;99.90;;;;;;5009262;28;20083;-81
2023/09/19 05:10:14;;;;;;;1.30;0.68;;;14.60;99.90;;;;;;5009982;28;20038;-80
2023/09/19 05:12:41;;;;;;;0.75;0.40;;;14.60;99.90;;;;;;5009264;28;20543;-81
2023/09/19 05:15:07;;;;;;;0.17;0.17;;;14.70;99.90;;;;;;5025800;28;20055;-80
2023/09/19 05:17:34;;;;;;;1.85;0.63;;;14.80;99.90;;;;;;5010043;28;20037;-81
2023/09/19 05:20:14;;;;;;;11.90;1.30;;;14.70;99.90;;;;;;5025623;28;20030;-81
2023/09/19 05:22:41;;;;;;;1.65;1.15;;;14.70;99.90;;;;;;5025074;28;20029;-81
2023/09/19 05:25:07;;;;;;;2.85;1.63;;;14.60;99.90;;;;;;5010450;28;20022;-80
2023/09/19 05:27:33;;;;;;;20.75;3.60;;;14.60;99.90;;;;;;5008843;28;20048;-81
2023/09/19 05:29:59;;;;;;;0.13;0.13;;;14.70;99.90;;;;;;5008647;28;20034;-81
2023/09/19 05:32:25;;;;;;;0.40;0.40;;;14.60;99.90;;;;;;5008418;28;20450;-80
2023/09/19 05:34:56;;;;;;;0.75;0.73;;;14.70;99.90;;;;;;5009561;28;20065;-80
2023/09/19 05:37:23;;;;;;;3.00;1.27;;;14.60;99.90;;;;;;5026109;28;20033;-80
2023/09/19 05:39:49;;;;;;;0.08;0.08;;;14.60;99.90;;;;;;5031315;28;20046;-80
2023/09/19 05:42:15;;;;;;;4.45;0.63;;;14.70;99.90;;;;;;5008713;28;20952;-80
2023/09/19 05:44:41;;;;;;;0.13;0.13;;;14.70;99.90;;;;;;5023171;28;20095;-81
2023/09/19 05:47:08;;;;;;;1.45;1.02;;;14.60;99.90;;;;;;5027233;28;20023;-79
2023/09/19 05:49:38;;;;;;;3.45;1.30;;;14.60;99.90;;;;;;5019477;28;20038;-80
2023/09/19 05:52:05;;;;;;;11.50;1.95;;;14.70;99.90;;;;;;5041026;28;20022;-81
2023/09/19 05:54:31;;;;;;;11.40;1.75;;;14.60;99.90;;;;;;5031479;28;20079;-80
2023/09/19 05:56:57;;;;;;;6.53;0.52;;;14.60;99.90;;;;;;5028227;28;20650;-80
2023/09/19 05:59:23;;;;;;;4.13;0.17;;;14.70;99.90;;;;;;5032125;28;20082;-81
2023/09/19 06:01:49;;;;;;;1.60;0.65;;;14.80;99.90;;;;;;5052772;28;20023;-80
2023/09/19 06:04:15;;;;;;;0.20;0.20;;;14.80;99.90;;;;;;5036283;28;20406;-80
2023/09/19 06:06:41;;;;;;;2.30;0.80;;;14.80;99.90;;;;;;5018274;28;20113;-79
2023/09/19 06:09:10;;;;;;;1.00;0.93;;;14.90;99.90;;;;;;5026916;28;20541;-80
2023/09/19 06:11:36;;;;;;;0.93;0.90;;;14.80;99.90;;;;;;5079477;28;20115;-81
2023/09/19 06:14:02;;;;;;;2.95;1.00;;;14.80;99.90;;;;;;5036890;28;20113;-81
2023/09/19 06:16:29;;;;;;;2.00;0.80;;;14.80;99.90;;;;;;5023719;28;20026;-81
2023/09/19 06:18:55;;;;;;;0.90;0.43;;;14.80;99.90;;;;;;5011500;28;20022;-81
2023/09/19 06:21:22;;;;;;;12.55;1.95;;;14.80;99.90;;;;;;5037356;28;20024;-80
2023/09/19 06:23:48;;;;;;;7.05;1.85;;;14.90;99.90;;;;;;5040886;28;20084;-80
2023/09/19 06:26:15;;;;;;;5.07;0.85;;;14.90;99.90;;;;;;5065039;28;20031;-79
2023/09/19 06:28:42;;;;;;;7.30;1.13;;;14.80;99.90;;;;;;5052364;28;20064;-81
2023/09/19 06:31:09;;;;;;;0.28;0.28;;;14.70;99.90;;;;;;5003632;28;20034;-81
2023/09/19 06:33:39;;;;;;;33.08;1.15;;;14.80;99.90;;;;;;5012800;28;20019;-80
2023/09/19 06:36:06;;;;;;;0.57;0.52;;;14.90;99.90;;;;;;5031024;28;20117;-79
2023/09/19 06:38:35;;;;;;;4.90;0.73;;;15.10;99.90;;;;;;5021652;28;20022;-81
2023/09/19 06:41:08;;;;;;;1.15;1.05;;;15.10;99.90;;;;;;5065531;28;20027;-80
2023/09/19 06:43:35;;;;;;;2.15;0.90;;;15.10;99.90;;;;;;5027613;28;20157;-80
2023/09/19 06:46:02;;;;;;;2.75;1.42;;;15.10;99.90;;;;;;5012646;28;20056;-82
2023/09/19 06:48:29;;;;;;;0.75;0.70;;;15.10;99.90;;;;;;5020821;28;20048;-78
2023/09/19 06:50:58;;;;;;;3.97;0.55;;;15.10;99.90;;;;;;5059622;28;20030;-82
2023/09/19 06:53:24;;;;;;;2.58;0.88;;;15.20;99.90;;;;;;5027874;28;20101;-82
2023/09/19 06:55:54;;;;;;;2.47;1.52;;;15.10;99.90;;;;;;5016772;28;20045;-80
2023/09/19 06:58:20;;;;;;;8.32;1.33;;;15.20;99.90;;;;;;5018928;28;20026;-82
2023/09/19 07:00:47;;;;;;;0.00;0.00;;;15.40;99.90;;;;;;5056725;28;20082;-82
2023/09/19 07:03:16;;;;;;;3.42;0.38;;;15.30;99.90;;;;;;5072853;28;20050;-81
2023/09/19 07:05:42;;;;;;;0.22;0.22;;;15.30;99.90;;;;;;5035357;28;20084;-79
2023/09/19 07:08:12;;;;;;;0.20;0.20;;;15.30;99.90;;;;;;5008331;28;20019;-79
2023/09/19 07:10:40;;;;;;;5.57;0.20;;;15.40;99.90;;;;;;4992827;28;20034;-83
2023/09/19 07:13:10;;;;;;;6.13;1.20;;;15.40;99.90;;;;;;5081541;28;20106;-79
2023/09/19 07:15:46;;;;;;;1.88;0.65;;;15.50;99.90;;;;;;5055978;28;20019;-79
2023/09/19 07:18:14;;;;;;;5.65;1.08;;;15.40;99.90;;;;;;5018019;28;20026;-82
2023/09/19 07:20:48;;;;;;;5.05;2.15;;;15.30;99.90;;;;;;5012891;28;20041;-82
2023/09/19 07:23:16;;;;;;;3.00;1.23;;;15.40;99.90;;;;;;5023893;28;20063;-79
2023/09/19 07:25:42;;;;;;;3.38;1.48;;;15.40;99.90;;;;;;5077567;28;20070;-81
2023/09/19 07:28:07;;;;;;;0.45;0.25;;;15.50;99.90;;;;;;5067658;28;20045;-80
2023/09/19 07:30:37;;;;;;;0.30;0.10;;;15.60;99.90;;;;;;5041991;28;20458;-78
2023/09/19 07:33:05;;;;;;;13.32;0.32;;;15.70;99.90;;;;;;5034081;28;20054;-80
2023/09/19 07:35:31;;;;;;;2.75;1.02;;;15.80;99.90;;;;;;5031067;28;20037;-79
2023/09/19 07:37:58;;;;;;;0.57;0.57;;;15.70;99.90;;;;;;5063287;28;20056;-82
2023/09/19 07:40:26;;;;;;;6.97;1.65;;;15.70;99.90;;;;;;5050209;28;20033;-80
2023/09/19 07:42:52;;;;;;;3.17;1.33;;;15.70;99.90;;;;;;5044671;28;20018;-79
2023/09/19 07:45:18;;;;;;;6.25;1.00;;;15.80;99.90;;;;;;5017016;28;20025;-79
2023/09/19 07:47:49;;;;;;;15.75;2.45;;;16.00;99.90;;;;;;5015295;28;20382;-79
2023/09/19 07:50:17;;;;;;;0.30;0.30;;;16.10;99.90;;;;;;5058791;28;20038;-79
2023/09/19 07:52:42;;;;;;;11.85;1.65;;;16.00;99.90;;;;;;5047140;28;20497;-79
2023/09/19 07:55:11;;;;;;;17.70;1.33;;;16.10;99.90;;;;;;5041692;28;20028;-80
2023/09/19 07:57:37;;;;;;;8.68;1.38;;;16.10;99.90;;;;;;5023485;28;20031;-79
2023/09/19 08:00:07;;;;;;;0.20;0.20;;;16.10;99.90;;;;;;5010361;28;20030;-78
2023/09/19 08:02:41;;;;;;;0.00;0.00;;;16.40;99.90;;;;;;5054946;28;20523;-78
2023/09/19 08:05:11;;;;;;;4.15;1.38;;;16.30;99.90;;;;;;5027587;28;20024;-80
2023/09/19 08:07:41;;;;;;;12.95;2.80;;;16.20;99.90;;;;;;5008072;28;20018;-79
2023/09/19 08:10:13;;;;;;;2.78;0.30;;;16.30;99.90;;;;;;5009280;28;20041;-76
2023/09/19 08:12:46;;;;;;;0.77;0.57;;;16.60;99.90;;;;;;5009705;28;20045;-76
2023/09/19 08:15:19;;;;;;;0.00;0.00;;;16.70;99.90;;;;;;5010857;28;20265;-77
2023/09/19 08:17:46;;;;;;;5.45;1.08;;;16.80;99.90;;;;;;5011102;28;20026;-76
2023/09/19 08:20:18;;;;;;;3.75;1.45;;;16.60;99.90;;;;;;5009725;28;20014;-77
2023/09/19 08:22:56;;;;;;;6.05;1.30;;;16.70;99.90;;;;;;5009788;28;20033;-77
2023/09/19 08:25:25;;;;;;;15.52;1.42;;;16.80;99.90;;;;;;5010860;28;20026;-77
2023/09/19 08:27:51;;;;;;;20.67;2.20;;;16.80;99.90;;;;;;5004815;28;20048;-77
2023/09/19 08:30:24;;;;;;;15.57;1.52;;;17.00;99.90;;;;;;4999363;28;20433;-77
2023/09/19 08:32:50;;;;;;;13.27;2.90;;;17.00;99.90;;;;;;5010737;28;20201;-81
2023/09/19 08:35:16;;;;;;;1.38;0.65;;;17.10;99.90;;;;;;5009564;28;20033;-76
2023/09/19 08:37:45;;;;;;;6.25;1.42;;;17.20;99.90;;;;;;5011005;28;20030;-77
2023/09/19 08:40:12;;;;;;;0.55;0.20;;;17.20;99.90;;;;;;5010527;28;20125;-76
2023/09/19 08:42:56;;;;;;;2.78;0.52;;;17.30;99.90;;;;;;5009709;28;20019;-79
2023/09/19 08:45:24;;;;;;;8.05;1.08;;;17.40;99.90;;;;;;5010436;28;20030;-77
2023/09/19 08:48:25;;;;;;;5.70;0.77;;;17.50;99.90;;;;;;5009313;28;20022;-77
2023/09/19 08:51:05;;;;;;;0.80;0.50;;;17.40;99.90;;;;;;5014450;28;20042;-76
2023/09/19 08:53:42;;;;;;;3.55;0.70;;;17.30;99.90;;;;;;5010321;28;20029;-77
2023/09/19 08:56:11;;;;;;;15.40;2.22;;;17.50;99.90;;;;;;5010468;28;20029;-80
2023/09/19 08:58:54;;;;;;;3.30;0.65;;;17.40;99.90;;;;;;5010077;28;20471;-77
2023/09/19 09:01:24;;;;;;;4.75;1.10;;;17.40;99.90;;;;;;4999944;28;20139;-77
2023/09/19 09:03:54;;;;;;;7.22;1.70;;;17.40;99.90;;;;;;5020154;28;20014;-77
2023/09/19 09:06:21;;;;;;;40.20;2.50;;;17.30;99.90;;;;;;5010310;28;20037;-78
2023/09/19 09:08:47;;;;;;;0.30;0.30;;;17.30;99.90;;;;;;5009978;28;20033;-76
2023/09/19 09:11:15;;;;;;;4.50;0.52;;;17.30;99.90;;;;;;5009972;28;20041;-76
2023/09/19 09:13:42;;;;;;;2.50;0.60;;;17.50;99.90;;;;;;5009800;28;20053;-77
2023/09/19 09:16:09;;;;;;;7.50;1.77;;;17.60;99.90;;;;;;5010170;28;20026;-77
2023/09/19 09:18:36;;;;;;;2.00;0.45;;;17.80;99.90;;;;;;5010115;28;20037;-77
2023/09/19 09:21:02;;;;;;;0.98;0.75;;;17.70;99.90;;;;;;5009966;28;20030;-77
2023/09/19 09:23:29;;;;;;;1.88;0.45;;;17.80;99.90;;;;;;5010163;28;20034;-77
2023/09/19 09:25:56;;;;;;;3.63;1.05;;;17.90;99.90;;;;;;5010059;28;20040;-76
2023/09/19 09:28:30;;;;;;;1.65;1.20;;;18.00;99.90;;;;;;5009906;28;20026;-78
2023/09/19 09:30:58;;;;;;;2.85;1.00;;;18.20;99.90;;;;;;5009861;28;20124;-77
2023/09/19 09:33:24;;;;;;;0.95;0.70;;;18.20;99.90;;;;;;5010041;28;20030;-77
2023/09/19 09:36:00;;;;;;;0.47;0.47;;;18.20;99.90;;;;;;5009878;28;20109;-77
2023/09/19 09:38:48;;;;;;;5.97;1.05;;;18.30;99.90;;;;;;5009836;28;20029;-79
2023/09/19 09:41:27;;;;;;;1.08;0.22;;;18.40;99.90;;;;;;5010109;28;20049;-80
2023/09/19 09:43:53;;;;;;;1.15;0.43;;;18.60;99.90;;;;;;5009968;28;20371;-77
2023/09/19 09:49:11;;;;;;;7.82;1.08;;;18.70;99.90;;;;;;5009687;28;20041;-76
2023/09/19 09:51:33;;;;;;;1.77;1.08;;;18.30;99.90;;;;;;5009593;28;20041;-77
2023/09/19 09:54:16;;;;;;;1.10;0.60;;;18.40;99.90;;;;;;5010038;28;20030;-76
2023/09/19 09:56:59;;;;;;;2.30;1.17;;;18.60;99.90;;;;;;5009288;28;20037;-78
2023/09/19 09:59:58;;;;;;;3.38;0.50;;;18.90;99.90;;;;;;5009723;28;20026;-78
2023/09/19 10:02:36;;;;;;;8.85;1.05;;;19.40;99.90;;;;;;5001789;28;20069;-77
2023/09/19 10:05:40;;;;;;;4.05;1.05;;;19.10;99.90;;;;;;5004293;28;20046;-77
2023/09/19 10:08:13;;;;;;;1.00;0.80;;;18.80;99.90;;;;;;5006747;28;20443;-76
2023/09/19 10:13:13;;;;;;;0.85;0.60;;;18.60;99.90;;;;;;5012862;28;20025;-76
2023/09/19 10:15:46;;;;;;;6.50;0.73;;;19.00;99.90;;;;;;4999359;28;20030;-76
2023/09/19 10:18:18;;;;;;;6.50;1.40;;;19.30;99.90;;;;;;4995221;28;20117;-76
2023/09/19 10:20:45;;;;;;;1.27;0.80;;;19.20;99.90;;;;;;5012630;28;20079;-76
2023/09/19 10:23:12;;;;;;;6.60;1.20;;;19.20;99.90;;;;;;5012798;28;20025;-76
2023/09/19 10:25:43;;;;;;;2.83;0.77;;;19.30;99.90;;;;;;5012456;28;20467;-76
2023/09/19 10:28:13;;;;;;;1.30;0.50;;;19.40;99.90;;;;;;5012589;28;20029;-75
2023/09/19 10:30:47;;;;;;;5.38;1.40;;;19.40;99.90;;;;;;5012749;28;20034;-76
2023/09/19 10:33:26;;;;;;;4.70;1.60;;;19.40;99.90;;;;;;5012683;28;20034;-77
2023/09/19 10:35:56;;;;;;;1.38;0.22;;;19.30;99.90;;;;;;5012713;28;20021;-76
2023/09/19 10:38:26;;;;;;;8.27;0.40;;;19.50;99.90;;;;;;5012376;28;20022;-76
2023/09/19 10:41:00;;;;;;;5.82;1.17;;;19.60;99.90;;;;;;5010882;28;20026;-75
2023/09/19 10:43:31;;;;;;;13.70;1.23;;;19.50;99.90;;;;;;5012472;28;20137;-76
2023/09/19 10:46:03;;;;;;;1.98;1.65;;;19.80;99.90;;;;;;5011324;28;20030;-76
2023/09/19 10:48:31;;;;;;;4.28;0.80;;;20.10;99.90;;;;;;5011157;28;20033;-76
2023/09/19 10:51:14;;;;;;;4.85;0.45;;;20.30;99.90;;;;;;5011113;28;20136;-76
2023/09/19 10:53:42;;;;;;;1.25;0.28;;;19.90;99.90;;;;;;5012432;28;20079;-75
2023/09/19 10:56:17;;;;;;;5.35;0.65;;;20.00;99.90;;;;;;5012265;28;20034;-76
2023/09/19 10:58:44;;;;;;;0.95;0.03;;;20.10;99.90;;;;;;5010892;28;20109;-76
2023/09/19 11:01:17;;;;;;;3.30;0.75;;;20.20;99.90;;;;;;5012242;28;20047;-76
2023/09/19 11:03:43;;;;;;;7.35;1.00;;;20.00;99.90;;;;;;5012136;28;20030;-76
2023/09/19 11:06:22;;;;;;;7.20;2.05;;;19.90;99.90;;;;;;5012357;28;20037;-76
2023/09/19 11:08:56;;;;;;;1.15;0.43;;;20.10;99.90;;;;;;5011522;28;20078;-75
2023/09/19 11:11:42;;;;;;;1.67;0.80;;;20.10;99.90;;;;;;5012540;28;20501;-75
2023/09/19 11:14:23;;;;;;;2.38;0.60;;;20.50;99.90;;;;;;5010732;28;20401;-76
2023/09/19 11:17:07;;;;;;;4.97;0.52;;;20.80;99.90;;;;;;5011858;28;20026;-76
2023/09/19 11:22:58;;;;;;;3.88;0.65;;;20.70;99.90;;;;;;5011854;28;20485;-73
2023/09/19 11:25:30;;;;;;;0.30;0.30;;;20.80;99.90;;;;;;5027065;28;20026;-73
2023/09/19 11:28:21;;;;;;;5.18;0.45;;;20.90;99.90;;;;;;5058956;28;20487;-74
2023/09/19 11:30:50;;;;;;;13.13;0.80;;;20.60;99.90;;;;;;5030880;28;20483;-75
2023/09/19 11:33:21;;;;;;;6.43;1.17;;;20.50;99.90;;;;;;5032120;28;20027;-73
2023/09/19 11:36:03;;;;;;;0.65;0.20;;;20.40;99.90;;;;;;5095588;28;20043;-73
2023/09/19 11:38:49;;;;;;;0.75;0.15;;;20.50;99.90;;;;;;5056088;28;20026;-73
2023/09/19 11:41:25;;;;;;;1.75;0.15;;;20.30;99.90;;;;;;5053246;28;20042;-73
2023/09/19 11:44:00;;;;;;;0.00;0.00;;;20.50;99.90;;;;;;5017456;28;20584;-73
2023/09/19 11:47:03;;;;;;;0.77;0.28;;;20.40;99.90;;;;;;5073538;28;20031;-74
2023/09/19 11:49:32;;;;;;;0.25;0.22;;;20.90;99.90;;;;;;4931195;29;20048;-75
2023/09/19 11:52:05;;;;;;;1.30;0.25;;;20.80;99.90;;;;;;5013248;28;20494;-73
2023/09/19 11:54:32;;;;;;;0.70;0.43;;;21.30;99.90;;;;;;5020771;28;20022;-73
2023/09/19 11:56:59;;;;;;;4.95;0.38;;;20.70;99.90;;;;;;5035521;28;20033;-73
2023/09/19 11:59:29;;;;;;;0.10;0.10;;;21.00;99.90;;;;;;5086967;28;20034;-73
2023/09/19 12:02:03;;;;;;;0.40;0.28;;;21.70;99.90;;;;;;5064156;28;20023;-74
2023/09/19 12:04:41;;;;;;;0.65;0.50;;;20.70;99.90;;;;;;5031009;28;20105;-73
2023/09/19 12:07:15;;;;;;;9.77;0.73;;;20.40;99.90;;;;;;5024275;28;20129;-75
2023/09/19 12:09:47;;;;;;;1.17;0.65;;;20.60;99.90;;;;;;5095537;28;20480;-75
2023/09/19 12:12:20;;;;;;;3.13;0.00;;;21.30;99.90;;;;;;5068885;28;20036;-75
2023/09/19 12:14:50;;;;;;;0.10;0.10;;;21.30;99.90;;;;;;5039662;28;20442;-73
2023/09/19 12:17:18;;;;;;;0.60;0.08;;;21.30;99.90;;;;;;5029441;28;20023;-74
2023/09/19 12:19:55;;;;;;;0.00;0.00;;;20.50;99.90;;;;;;5044947;28;20024;-73
2023/09/19 12:22:21;;;;;;;3.45;0.60;;;20.60;99.90;;;;;;5080102;28;20480;-73
2023/09/19 12:24:48;;;;;;;1.60;0.65;;;20.20;99.90;;;;;;5047755;28;20014;-73
2023/09/19 12:27:14;;;;;;;5.40;0.28;;;20.20;99.90;;;;;;5045690;28;20026;-74
2023/09/19 12:29:45;;;;;;;0.73;0.57;;;20.10;99.90;;;;;;5051087;28;20106;-73
2023/09/19 12:32:12;;;;;;;3.72;0.95;;;20.10;99.90;;;;;;5018529;28;20859;-74
2023/09/19 12:34:44;;;;;;;0.55;0.30;;;20.10;99.90;;;;;;5078244;28;20092;-73
2023/09/19 12:37:12;;;;;;;1.75;0.57;;;20.10;99.90;;;;;;5075589;28;20344;-73
2023/09/19 12:39:53;;;;;;;3.08;0.52;;;20.90;99.90;;;;;;5069547;28;20027;-73
2023/09/19 12:42:23;;;;;;;0.00;0.00;;;21.00;99.90;;;;;;5027228;28;20041;-74
2023/09/19 12:45:00;;;;;;;1.20;0.50;;;20.80;99.90;;;;;;5014163;28;20030;-73
2023/09/19 12:47:29;;;;;;;1.60;0.40;;;20.80;99.90;;;;;;4998282;28;20117;-73
2023/09/19 12:50:19;;;;;;;1.75;1.30;;;20.20;99.90;;;;;;5009221;28;20042;-73
2023/09/19 12:52:49;;;;;;;0.93;0.32;;;20.30;99.90;;;;;;5009048;28;20422;-74
2023/09/19 12:55:22;;;;;;;3.22;1.13;;;20.60;99.90;;;;;;5009305;28;20050;-73
2023/09/19 12:58:05;;;;;;;0.98;0.63;;;20.40;99.90;;;;;;5009441;28;20030;-74
2023/09/19 13:00:39;;;;;;;0.15;0.15;;;20.40;99.90;;;;;;5010125;28;20033;-76
2023/09/19 13:03:20;;;;;;;1.52;0.75;;;20.20;99.90;;;;;;5009729;28;20378;-73
2023/09/19 13:05:54;;;;;;;2.45;0.63;;;20.30;99.90;;;;;;5008058;28;20452;-74
2023/09/19 13:08:29;;;;;;;2.42;0.40;;;20.20;99.90;;;;;;5009551;28;20097;-82
2023/09/19 13:11:10;;;;;;;11.73;1.65;;;20.30;99.90;;;;;;5009289;28;20030;-73